Time;durP1;ratioP1;P1;durP2;ratioP2;P2;SDS_P1;SDS_P2;PMS_P1;PMS_P2;Temp;Humidity;BMP_temperature;BMP_pressure;BME280_temperature;BME280_humidity;BME280_pressure;Samples;Min_cycle;Max_cycle;Signal;HPM_P1;HPM_P2
2024/01/17 00:01:54;;;;;;;;;;;;;;;1.21;46.91;98202.34;68009;1275;1016308;-60
2024/01/17 00:04:57;;;;;;;61.50;21.90;;;;;;;1.11;47.28;98207.83;68014;1275;1016264;-60
2024/01/17 00:08:00;;;;;;;61.00;23.60;;;;;;;1.15;47.43;98215.09;67975;1275;1016220;-59
2024/01/17 00:11:02;;;;;;;60.10;21.40;;;;;;;1.17;46.58;98211.39;67966;1275;1016397;-60
2024/01/17 00:14:05;;;;;;;;;;;;;;;1.02;46.80;98208.12;68008;1275;1016381;-61
2024/01/17 00:17:08;;;;;;;;;;;;;;;0.76;46.83;98209.98;68010;1275;1016313;-61
2024/01/17 00:20:11;;;;;;;62.50;20.70;;;;;;;0.53;46.80;98218.39;67931;1275;1017189;-61
2024/01/17 00:23:13;;;;;;;60.00;21.30;;;;;;;0.29;46.13;98214.30;67998;1275;1016458;-61
2024/01/17 00:26:16;;;;;;;59.60;23.20;;;;;;;0.01;46.53;98214.91;67995;1275;1016251;-61
2024/01/17 00:29:19;;;;;;;63.60;23.50;;;;;;;0.01;46.93;98212.48;67946;1275;1016233;-61
2024/01/17 00:32:21;;;;;;;59.30;22.60;;;;;;;0.10;46.97;98212.09;68020;1275;1018815;-61
2024/01/17 00:35:25;;;;;;;61.40;22.80;;;;;;;0.21;46.79;98210.75;67972;1275;1016256;-61
2024/01/17 00:38:28;;;;;;;60.40;23.50;;;;;;;0.27;47.07;98210.04;67994;1275;1016806;-60
2024/01/17 00:41:30;;;;;;;64.80;23.00;;;;;;;0.29;47.33;98209.84;67979;1275;1016838;-61
2024/01/17 00:44:33;;;;;;;74.00;24.60;;;;;;;0.26;46.08;98206.80;67948;1275;1017062;-61
2024/01/17 00:47:36;;;;;;;65.90;22.30;;;;;;;-0.08;45.79;98202.44;68010;1275;1016451;-61
2024/01/17 00:50:39;;;;;;;66.60;24.20;;;;;;;-0.27;46.19;98203.46;67919;1275;1016059;-59
2024/01/17 00:53:41;;;;;;;65.60;23.30;;;;;;;-0.34;46.54;98200.23;67982;1275;1016417;-60
2024/01/17 00:56:44;;;;;;;64.50;24.00;;;;;;;-0.41;46.83;98201.29;67991;1275;1016371;-60
2024/01/17 00:59:47;;;;;;;65.70;24.40;;;;;;;-0.33;47.37;98203.64;67921;1275;1016131;-61
2024/01/17 01:02:49;;;;;;;66.10;24.60;;;;;;;-0.20;47.00;98206.89;67986;1275;1016098;-61
2024/01/17 01:05:52;;;;;;;70.10;24.80;;;;;;;-0.17;47.14;98205.45;67981;1274;1016465;-61
2024/01/17 01:08:55;;;;;;;63.40;23.90;;;;;;;-0.19;47.20;98204.64;67993;1275;1016243;-60
2024/01/17 01:11:58;;;;;;;64.30;24.50;;;;;;;-0.27;47.27;98200.39;67971;1275;1016456;-60
2024/01/17 01:15:00;;;;;;;62.40;22.60;;;;;;;-0.24;47.32;98199.94;67966;1275;1016351;-60
2024/01/17 01:18:03;;;;;;;62.10;23.40;;;;;;;-0.19;47.42;98202.91;67924;1251;1016172;-61
2024/01/17 01:21:06;;;;;;;59.00;22.70;;;;;;;0.01;47.58;98208.55;67969;1275;1016396;-61
2024/01/17 01:24:08;;;;;;;67.40;24.00;;;;;;;0.11;46.86;98207.39;68006;1275;1016310;-61
2024/01/17 01:27:11;;;;;;;74.00;25.20;;;;;;;0.03;46.35;98204.88;67918;1275;1015854;-60
2024/01/17 01:30:14;;;;;;;66.90;23.70;;;;;;;-0.16;47.12;98206.09;67921;1275;1016440;-60
2024/01/17 01:33:16;;;;;;;65.50;22.20;;;;;;;-0.33;47.11;98208.95;67956;1275;1016961;-61
2024/01/17 01:36:19;;;;;;;62.50;23.50;;;;;;;-0.40;47.09;98203.29;67911;1275;1016456;-61
2024/01/17 01:39:22;;;;;;;69.30;26.30;;;;;;;-0.47;47.06;98194.23;68011;1275;1018169;-60
2024/01/17 01:42:24;;;;;;;69.70;24.80;;;;;;;-0.45;46.85;98192.60;67963;1275;1016420;-61
2024/01/17 01:45:27;;;;;;;65.40;23.10;;;;;;;-0.53;46.89;98185.95;67934;1275;1016423;-61
2024/01/17 01:48:30;;;;;;;65.70;24.30;;;;;;;-0.61;47.13;98183.06;68014;1275;1016001;-60
2024/01/17 01:51:32;;;;;;;58.00;22.90;;;;;;;-0.65;47.17;98179.92;67951;1275;1016436;-60
2024/01/17 01:54:35;;;;;;;75.80;27.20;;;;;;;-0.69;47.05;98173.48;67872;1275;1015506;-60
2024/01/17 01:57:38;;;;;;;69.60;26.10;;;;;;;-0.85;46.92;98173.21;67975;1275;1018851;-60
2024/01/17 02:00:41;;;;;;;76.20;26.90;;;;;;;-1.00;47.00;98168.27;67916;1275;1016345;-60
2024/01/17 02:03:44;;;;;;;91.80;29.50;;;;;;;-1.14;46.80;98172.20;67997;1275;1016894;-60
2024/01/17 02:06:47;;;;;;;101.50;31.90;;;;;;;-1.27;47.01;98169.09;67956;1275;1016941;-59
2024/01/17 02:09:49;;;;;;;92.10;30.80;;;;;;;-1.37;47.11;98167.95;67945;1275;1016211;-60
2024/01/17 02:12:52;;;;;;;63.20;22.70;;;;;;;-1.36;47.24;98164.32;67983;1275;1016306;-61
2024/01/17 02:15:55;;;;;;;79.60;28.00;;;;;;;-1.34;47.28;98165.46;67950;1275;1017395;-60
2024/01/17 02:18:58;;;;;;;66.80;23.80;;;;;;;-1.33;46.87;98167.33;67947;1275;1016408;-60
2024/01/17 02:22:01;;;;;;;61.10;22.90;;;;;;;-1.22;46.53;98162.60;67948;1275;1016257;-60
2024/01/17 02:25:04;;;;;;;70.40;24.40;;;;;;;-1.23;46.14;98161.95;67943;1275;1016097;-60
2024/01/17 02:28:07;;;;;;;85.40;29.70;;;;;;;-1.42;45.87;98161.36;68005;1275;1016254;-60
2024/01/17 02:31:09;;;;;;;70.60;24.00;;;;;;;-1.66;46.06;98153.16;67941;1275;1016544;-59
2024/01/17 02:34:12;;;;;;;60.80;20.70;;;;;;;-1.72;46.30;98143.52;68019;1275;1016331;-60
2024/01/17 02:37:15;;;;;;;60.20;21.70;;;;;;;-1.72;46.86;98138.02;68005;1275;1016460;-60
2024/01/17 02:40:18;;;;;;;54.00;20.30;;;;;;;-1.64;46.62;98138.53;67973;1275;1016389;-60
2024/01/17 02:43:20;;;;;;;55.60;20.20;;;;;;;-1.76;46.44;98131.61;68005;1275;1016467;-60
2024/01/17 02:46:23;;;;;;;62.40;22.60;;;;;;;-1.90;46.49;98131.58;67959;1275;1017144;-60
2024/01/17 02:49:26;;;;;;;61.10;21.00;;;;;;;-2.08;46.62;98126.98;67952;1275;1016310;-61
2024/01/17 02:52:28;;;;;;;59.50;20.30;;;;;;;-2.08;46.83;98126.13;67993;1275;1016795;-60
2024/01/17 02:55:31;;;;;;;54.80;20.00;;;;;;;-2.01;46.88;98120.52;67976;1275;1016236;-59
2024/01/17 02:58:34;;;;;;;56.10;20.70;;;;;;;-1.92;46.91;98117.90;67922;1275;1015871;-61
2024/01/17 03:01:36;;;;;;;68.40;24.20;;;;;;;-1.88;46.91;98111.13;67981;1275;1016434;-60
2024/01/17 03:04:39;;;;;;;84.10;25.70;;;;;;;-1.78;47.05;98113.66;67959;1275;1016463;-60
2024/01/17 03:07:42;;;;;;;64.00;22.20;;;;;;;-1.73;46.85;98109.25;67951;1275;1016435;-60
2024/01/17 03:10:44;;;;;;;57.90;20.70;;;;;;;-1.72;46.94;98111.82;68019;1275;1016474;-60
2024/01/17 03:13:47;;;;;;;58.90;21.30;;;;;;;-1.75;47.16;98111.87;67926;1275;1016280;-60
2024/01/17 03:16:50;;;;;;;61.90;20.50;;;;;;;-1.80;47.20;98108.89;68004;1275;1016489;-60
2024/01/17 03:19:54;;;;;;;57.90;20.60;;;;;;;-1.76;47.43;98106.58;67982;1275;1016410;-60
2024/01/17 03:22:56;;;;;;;61.30;21.20;;;;;;;-1.74;47.37;98106.70;68018;1275;1016458;-60
2024/01/17 03:25:59;;;;;;;55.40;20.80;;;;;;;-1.74;47.08;98110.13;67988;1275;1016594;-60
2024/01/17 03:29:02;;;;;;;58.00;21.50;;;;;;;-1.91;47.00;98108.29;67936;1275;1017127;-61
2024/01/17 03:32:04;;;;;;;64.70;21.40;;;;;;;-1.95;47.30;98109.05;68019;1275;1016204;-60
2024/01/17 03:35:07;;;;;;;61.00;22.20;;;;;;;-1.80;47.65;98106.16;68011;1275;1016473;-60
2024/01/17 03:38:10;;;;;;;64.80;22.60;;;;;;;-1.66;47.72;98105.85;67965;1275;1018339;-60
2024/01/17 03:41:12;;;;;;;62.20;22.80;;;;;;;-1.61;47.65;98106.94;68021;1275;1018095;-60
2024/01/17 03:44:15;;;;;;;63.50;21.20;;;;;;;-1.59;47.54;98107.56;67990;1275;1019294;-59
2024/01/17 03:47:18;;;;;;;61.30;22.10;;;;;;;-1.56;47.26;98104.42;67910;1275;1016386;-60
2024/01/17 03:50:20;;;;;;;65.00;23.00;;;;;;;-1.51;47.35;98097.95;67975;1275;1016451;-60
2024/01/17 03:53:23;;;;;;;71.20;24.50;;;;;;;-1.55;46.88;98105.42;67978;1275;1015585;-60
2024/01/17 03:56:26;;;;;;;66.50;23.80;;;;;;;-1.74;46.83;98107.23;67934;1275;1016181;-60
2024/01/17 03:59:28;;;;;;;59.90;23.00;;;;;;;-1.89;47.38;98108.08;67990;1275;1016455;-60
2024/01/17 04:02:31;;;;;;;59.00;21.30;;;;;;;-1.85;47.61;98108.16;67983;1275;1016238;-59
2024/01/17 04:05:34;;;;;;;61.70;22.40;;;;;;;-1.81;47.57;98112.18;67923;1275;1016451;-60
2024/01/17 04:08:37;;;;;;;60.50;21.40;;;;;;;-1.76;47.57;98118.23;68013;1275;1016445;-60
2024/01/17 04:11:40;;;;;;;61.20;21.90;;;;;;;-1.71;47.11;98118.48;68038;1275;1016295;-59
2024/01/17 04:14:43;;;;;;;60.60;21.40;;;;;;;-1.62;47.48;98113.13;67998;1275;1016460;-60
2024/01/17 04:17:46;;;;;;;57.90;20.40;;;;;;;-1.66;47.80;98111.15;67931;1275;1016106;-60
2024/01/17 04:20:48;;;;;;;57.40;21.50;;;;;;;-1.59;48.07;98109.44;67994;1275;1015920;-59
2024/01/17 04:23:51;;;;;;;60.60;21.90;;;;;;;-1.48;48.02;98103.86;67961;1275;1015926;-59
2024/01/17 04:26:54;;;;;;;57.10;21.30;;;;;;;-1.42;47.88;98104.61;67907;1275;1018919;-59
2024/01/17 04:29:56;;;;;;;59.30;22.10;;;;;;;-1.52;47.35;98110.49;68043;1274;1016297;-59
2024/01/17 04:33:00;;;;;;;57.80;21.80;;;;;;;-1.53;47.24;98106.07;67957;1275;1016119;-59
2024/01/17 04:36:03;;;;;;;56.20;21.50;;;;;;;-1.56;47.62;98106.13;67958;1275;1016352;-60
2024/01/17 04:39:05;;;;;;;58.10;22.40;;;;;;;-1.61;47.36;98101.09;67952;1275;1016485;-59
2024/01/17 04:42:08;;;;;;;60.40;21.70;;;;;;;-1.62;47.73;98092.38;67993;1275;1018310;-60
2024/01/17 04:45:12;;;;;;;59.70;22.30;;;;;;;-1.67;47.57;98086.30;67975;1275;1016159;-60
2024/01/17 04:48:15;;;;;;;62.60;22.30;;;;;;;-1.77;47.86;98087.73;67996;1275;1016468;-59
2024/01/17 04:51:17;;;;;;;60.20;21.60;;;;;;;-1.72;48.02;98078.21;67940;1275;1016223;-60
2024/01/17 04:54:20;;;;;;;59.60;22.70;;;;;;;-1.66;47.95;98070.54;67982;1275;1016434;-60
2024/01/17 04:57:23;;;;;;;61.40;23.60;;;;;;;-1.65;48.03;98062.79;67990;1261;1016386;-60
2024/01/17 05:00:26;;;;;;;67.00;24.10;;;;;;;-1.47;48.05;98060.48;67933;1275;1016149;-59
2024/01/17 05:03:28;;;;;;;63.10;22.90;;;;;;;-1.34;47.94;98055.69;67945;1275;1016341;-60
2024/01/17 05:06:33;;;;;;;61.50;23.10;;;;;;;-1.32;47.75;98047.77;67996;1275;1016443;-58
2024/01/17 05:09:37;;;;;;;65.30;23.50;;;;;;;-1.36;47.82;98045.45;67905;1275;1018409;-59
2024/01/17 05:12:40;;;;;;;63.40;22.90;;;;;;;-1.33;48.11;98039.19;67964;1275;1016262;-59
2024/01/17 05:15:43;;;;;;;64.60;23.80;;;;;;;-1.27;47.85;98032.17;67989;1275;1016252;-59
2024/01/17 05:18:45;;;;;;;58.60;22.20;;;;;;;-1.28;47.99;98027.23;67982;1275;1015736;-60
2024/01/17 05:21:48;;;;;;;63.50;22.90;;;;;;;-1.36;48.22;98025.55;67936;1275;1015999;-60
2024/01/17 05:24:51;;;;;;;65.60;23.40;;;;;;;-1.31;48.43;98021.63;67971;1275;1016845;-59
2024/01/17 05:27:53;;;;;;;56.60;20.60;;;;;;;-1.24;48.38;98020.09;67992;1275;1016940;-60
2024/01/17 05:30:56;;;;;;;56.20;20.80;;;;;;;-1.14;48.48;98019.32;67928;1275;1016178;-60
2024/01/17 05:33:59;;;;;;;56.20;22.50;;;;;;;-1.08;48.20;98012.13;68024;1275;1015871;-60
2024/01/17 05:37:03;;;;;;;63.60;21.40;;;;;;;-1.17;48.38;98011.00;67999;1275;1016441;-59
2024/01/17 05:40:06;;;;;;;58.00;21.50;;;;;;;-1.21;48.62;98007.82;67998;1275;1016406;-60
2024/01/17 05:43:08;;;;;;;80.20;26.50;;;;;;;-1.19;48.39;98005.20;67973;1275;1016266;-59
2024/01/17 05:46:11;;;;;;;89.30;28.90;;;;;;;-1.30;47.95;98005.83;68029;1275;1018397;-60
2024/01/17 05:49:14;;;;;;;89.50;29.00;;;;;;;-1.39;48.31;98004.88;67919;1275;1015839;-60
2024/01/17 05:52:17;;;;;;;86.80;28.20;;;;;;;-1.35;48.46;98003.73;67991;1275;1016747;-60
2024/01/17 05:55:20;;;;;;;93.60;33.40;;;;;;;-1.30;48.09;97994.52;67986;1275;1016481;-59
2024/01/17 05:58:23;;;;;;;85.70;29.90;;;;;;;-1.44;47.82;97991.63;67984;1275;1016489;-59
2024/01/17 06:01:25;;;;;;;74.60;27.30;;;;;;;-1.55;48.12;97987.61;68000;1275;1016524;-60
2024/01/17 06:04:28;;;;;;;62.40;23.80;;;;;;;-1.58;48.06;97985.28;67956;1275;1016287;-60
2024/01/17 06:07:31;;;;;;;58.40;21.40;;;;;;;-1.68;48.21;97983.47;67960;1275;1016342;-58
2024/01/17 06:10:33;;;;;;;63.00;22.00;;;;;;;-1.73;48.47;97984.98;67993;1275;1015833;-60
2024/01/17 06:13:36;;;;;;;62.70;23.80;;;;;;;-1.72;48.05;97982.72;67939;1275;1016409;-60
2024/01/17 06:16:39;;;;;;;72.20;26.90;;;;;;;-1.77;48.00;97976.84;68001;1275;1015717;-60
2024/01/17 06:19:42;;;;;;;65.30;25.30;;;;;;;-1.76;48.09;97969.61;68022;1275;1016423;-60
2024/01/17 06:22:45;;;;;;;60.60;21.40;;;;;;;-1.74;48.37;97961.70;67815;1275;1194892;-60
2024/01/17 06:25:48;;;;;;;62.20;23.10;;;;;;;-1.65;48.69;97960.27;68011;1275;1016404;-60
2024/01/17 06:28:50;;;;;;;56.40;21.10;;;;;;;-1.61;48.79;97957.40;67949;1275;1016492;-59
2024/01/17 06:31:53;;;;;;;57.40;21.00;;;;;;;-1.46;48.79;97956.02;67987;1275;1016456;-59
2024/01/17 06:34:56;;;;;;;69.50;24.70;;;;;;;-1.37;48.95;97954.56;67995;1274;1015967;-60
2024/01/17 06:37:59;;;;;;;72.10;24.90;;;;;;;-1.25;48.78;97955.79;67957;1275;1016071;-60
2024/01/17 06:41:01;;;;;;;84.40;25.90;;;;;;;-1.16;48.62;97952.98;67996;1275;1016186;-57
2024/01/17 06:44:04;;;;;;;78.60;24.20;;;;;;;-1.18;48.61;97947.19;67982;1275;1016494;-60
2024/01/17 06:47:07;;;;;;;70.50;23.60;;;;;;;-1.11;48.55;97943.58;67999;1275;1018130;-61
2024/01/17 06:50:09;;;;;;;70.10;25.70;;;;;;;-1.13;48.48;97936.73;67973;1275;1017593;-59
2024/01/17 06:53:13;;;;;;;72.00;25.50;;;;;;;-1.06;48.71;97930.72;68022;1275;1016890;-59
2024/01/17 06:56:15;;;;;;;72.90;25.20;;;;;;;-1.00;48.86;97931.25;67972;1275;1015674;-60
2024/01/17 06:59:18;;;;;;;63.90;23.70;;;;;;;-0.90;48.68;97930.45;67988;1275;1016236;-60
2024/01/17 07:02:21;;;;;;;55.00;19.80;;;;;;;-0.83;48.63;97925.27;67955;1275;1016522;-59
2024/01/17 07:05:23;;;;;;;55.30;20.30;;;;;;;-0.75;48.66;97926.23;68003;1275;1016502;-60
2024/01/17 07:08:26;;;;;;;55.40;20.70;;;;;;;-0.56;48.55;97919.31;67984;1275;1018016;-59
2024/01/17 07:11:29;;;;;;;51.60;19.80;;;;;;;-0.50;48.70;97918.46;67982;1275;1016286;-59
2024/01/17 07:14:31;;;;;;;54.90;19.70;;;;;;;-0.38;48.43;97917.91;67995;1275;1016460;-59
2024/01/17 07:17:34;;;;;;;63.10;23.90;;;;;;;-0.12;48.67;97920.19;67957;1275;1015656;-57
2024/01/17 07:20:37;;;;;;;54.80;21.30;;;;;;;0.01;48.41;97920.64;67959;1275;1016980;-59
2024/01/17 07:23:40;;;;;;;52.90;19.70;;;;;;;0.05;48.50;97919.98;67990;1275;1016547;-58
2024/01/17 07:26:43;;;;;;;56.80;20.40;;;;;;;0.23;48.48;97915.94;67968;1275;1016434;-60
2024/01/17 07:29:46;;;;;;;56.20;20.70;;;;;;;0.41;48.23;97917.05;68011;1275;1016382;-60
2024/01/17 07:32:48;;;;;;;52.30;19.70;;;;;;;0.47;48.26;97917.38;68016;1275;1016171;-60
2024/01/17 07:35:51;;;;;;;51.80;19.90;;;;;;;0.51;48.34;97911.55;67967;1253;1016403;-59
2024/01/17 07:38:54;;;;;;;51.00;19.50;;;;;;;0.66;48.25;97906.05;68015;1275;1015843;-59
2024/01/17 07:41:57;;;;;;;52.80;20.60;;;;;;;0.79;48.17;97903.17;67974;1275;1016492;-59
2024/01/17 07:44:59;;;;;;;57.20;20.90;;;;;;;0.92;48.16;97900.27;67953;1275;1017211;-59
2024/01/17 07:48:02;;;;;;;50.50;19.90;;;;;;;1.10;48.14;97893.77;68022;1275;1016477;-59
2024/01/17 07:51:05;;;;;;;48.00;19.60;;;;;;;1.27;48.08;97883.17;67960;1275;1016357;-60
2024/01/17 07:54:08;;;;;;;51.00;20.20;;;;;;;1.49;47.93;97872.46;68003;1275;1016440;-60
2024/01/17 07:57:12;;;;;;;;;;;;;;;1.72;47.81;97868.13;67981;1275;1016292;-61
2024/01/17 08:00:14;;;;;;;46.60;18.00;;;;;;;1.87;47.50;97856.27;68023;1275;1016318;-59
2024/01/17 08:03:17;;;;;;;;;;;;;;;2.01;47.27;97848.81;67976;1275;1016441;-59
2024/01/17 08:06:20;;;;;;;;;;;;;;;2.07;47.59;97847.88;68019;1275;1016461;-60
2024/01/17 08:09:26;;;;;;;50.80;19.70;;;;;;;2.27;47.41;97844.64;67939;1275;1016295;-60
2024/01/17 08:12:29;;;;;;;50.80;20.10;;;;;;;2.45;47.51;97842.11;67981;1275;1016517;-60
2024/01/17 08:15:32;;;;;;;50.10;19.30;;;;;;;2.71;47.30;97842.54;67975;1275;1016384;-59
2024/01/17 08:18:35;;;;;;;53.20;20.20;;;;;;;2.91;46.81;97836.98;67982;1275;1016396;-60
2024/01/17 08:21:37;;;;;;;;;;;;;;;3.04;46.70;97828.45;67954;1275;1016455;-60
2024/01/17 08:24:40;;;;;;;;;;;;;;;3.17;46.36;97825.42;67977;1275;1016469;-60
2024/01/17 08:27:43;;;;;;;48.80;20.50;;;;;;;3.31;46.54;97818.36;67929;1275;1016378;-60
2024/01/17 08:30:46;;;;;;;48.30;19.50;;;;;;;3.59;46.46;97813.55;67923;1275;1016436;-60
2024/01/17 08:33:49;;;;;;;49.80;20.20;;;;;;;3.80;46.44;97810.98;67956;1275;1018044;-60
2024/01/17 08:36:54;;;;;;;;;;;;;;;4.11;46.15;97807.20;67959;1275;1016335;-58
2024/01/17 08:39:56;;;;;;;49.30;19.80;;;;;;;4.48;46.27;97807.70;68016;1275;1016389;-60
2024/01/17 08:42:59;;;;;;;49.10;20.10;;;;;;;4.91;45.78;97801.27;67958;1275;1016341;-59
2024/01/17 08:46:02;;;;;;;50.80;20.40;;;;;;;5.12;45.26;97800.88;67942;1275;1016400;-60
2024/01/17 08:49:05;;;;;;;47.30;19.20;;;;;;;5.30;45.21;97794.45;68019;1275;1016102;-60
2024/01/17 08:52:07;;;;;;;;;;;;;;;5.48;44.98;97786.90;67960;1275;1016192;-60
2024/01/17 08:55:10;;;;;;;;;;;;;;;5.63;44.94;97777.02;67978;1275;1016402;-60
2024/01/17 08:58:13;;;;;;;;;;;;;;;5.60;44.85;97777.87;68026;1275;1016483;-60
2024/01/17 09:01:16;;;;;;;47.00;18.10;;;;;;;5.85;45.15;97769.85;67980;1275;1016398;-60
2024/01/17 09:04:28;;;;;;;48.50;18.60;;;;;;;6.13;44.80;97756.64;67966;1275;1016199;-60
2024/01/17 09:07:31;;;;;;;46.00;18.30;;;;;;;6.22;44.68;97753.61;68003;1275;1016539;-60
2024/01/17 09:10:34;;;;;;;44.80;17.30;;;;;;;6.38;44.40;97741.57;67978;1275;1016550;-60
2024/01/17 09:13:36;;;;;;;42.60;17.60;;;;;;;6.47;44.32;97734.09;67984;1275;1017231;-59
2024/01/17 09:16:39;;;;;;;;;;;;;;;6.73;44.67;97733.35;68018;1275;1016483;-59
2024/01/17 09:19:43;;;;;;;48.50;18.30;;;;;;;6.98;43.90;97727.75;67953;1275;1016875;-60
2024/01/17 09:22:45;;;;;;;47.50;20.10;;;;;;;7.06;43.60;97724.80;67996;1275;1016130;-61
2024/01/17 09:25:48;;;;;;;43.10;17.60;;;;;;;7.11;44.04;97719.10;67997;1275;1017260;-60
2024/01/17 09:28:51;;;;;;;;;;;;;;;7.21;43.87;97715.38;68024;1275;1016253;-60
2024/01/17 09:31:53;;;;;;;45.50;18.40;;;;;;;7.35;43.39;97705.05;68022;1275;1016900;-60
2024/01/17 09:34:56;;;;;;;;;;;;;;;7.47;43.42;97695.38;67971;1275;1016258;-59
2024/01/17 09:37:59;;;;;;;44.60;17.60;;;;;;;7.71;43.56;97684.59;68068;1275;1016232;-60
2024/01/17 09:41:01;;;;;;;;;;;;;;;7.95;43.05;97685.37;68028;1275;1016250;-60
2024/01/17 09:44:04;;;;;;;46.10;18.30;;;;;;;7.81;42.38;97674.14;67967;1275;1016362;-60
2024/01/17 09:47:08;;;;;;;47.50;18.60;;;;;;;7.75;42.78;97667.92;68043;1275;1016342;-60
2024/01/17 09:50:11;;;;;;;41.80;16.60;;;;;;;7.76;42.89;97659.51;68000;1275;1016387;-60
2024/01/17 09:53:14;;;;;;;48.00;18.70;;;;;;;7.81;42.83;97656.44;68016;1275;1019140;-60
2024/01/17 09:56:16;;;;;;;;;;;;;;;7.90;42.82;97657.35;67964;1275;1016372;-60
2024/01/17 09:59:21;;;;;;;41.90;18.00;;;;;;;8.20;42.80;97646.25;68008;1275;1016551;-60
2024/01/17 10:02:24;;;;;;;39.60;16.10;;;;;;;8.42;42.61;97633.02;68018;1275;1016212;-60
2024/01/17 10:05:26;;;;;;;39.40;16.60;;;;;;;8.58;41.29;97624.47;67973;1275;1016370;-60
2024/01/17 10:08:29;;;;;;;;;;;;;;;8.56;41.44;97620.27;68057;1275;1016531;-60
2024/01/17 10:11:32;;;;;;;40.60;16.50;;;;;;;8.58;41.43;97604.91;67998;1275;1019061;-61
2024/01/17 10:14:34;;;;;;;37.60;15.90;;;;;;;8.48;40.58;97598.46;67997;1275;1016391;-60
2024/01/17 10:17:37;;;;;;;;;;;;;;;8.44;40.76;97596.81;67992;1275;1016785;-60
2024/01/17 10:20:40;;;;;;;42.40;18.20;;;;;;;8.45;40.95;97591.72;68002;1275;1016439;-60
2024/01/17 10:23:42;;;;;;;42.80;17.50;;;;;;;8.62;41.29;97589.31;67979;1275;1016377;-61
2024/01/17 10:26:45;;;;;;;;;;;;;;;8.74;40.72;97583.35;67992;1275;1016390;-61
2024/01/17 10:29:48;;;;;;;40.10;15.90;;;;;;;8.87;40.93;97570.80;67994;1275;1016447;-60
2024/01/17 10:32:51;;;;;;;;;;;;;;;9.04;39.69;97560.81;67977;1275;1016493;-60
2024/01/17 10:35:53;;;;;;;41.90;16.90;;;;;;;9.01;39.92;97554.36;67964;1275;1017171;-60
2024/01/17 10:38:56;;;;;;;;;;;;;;;9.11;39.89;97546.33;68029;1275;1016340;-60
2024/01/17 10:41:59;;;;;;;41.50;16.80;;;;;;;9.29;39.89;97531.35;68023;1275;1016528;-60
2024/01/17 10:45:03;;;;;;;42.10;17.20;;;;;;;9.53;39.95;97521.69;68005;1275;1016141;-60
2024/01/17 10:48:06;;;;;;;44.60;17.30;;;;;;;9.79;39.16;97524.74;67993;1275;1016280;-60
2024/01/17 10:51:08;;;;;;;;;;;;;;;9.89;38.95;97520.08;68008;1275;1016461;-61
2024/01/17 10:54:11;;;;;;;38.40;15.90;;;;;;;10.09;39.13;97513.84;67959;1275;1016403;-61
2024/01/17 10:57:14;;;;;;;;;;;;;;;10.43;38.87;97503.95;67955;1275;1016386;-59
2024/01/17 11:00:17;;;;;;;41.90;16.70;;;;;;;10.63;37.94;97489.92;68044;1275;1016107;-61
2024/01/17 11:03:19;;;;;;;38.10;16.10;;;;;;;10.97;38.18;97489.20;67938;1275;1017934;-60
2024/01/17 11:06:22;;;;;;;;;;;;;;;11.25;37.58;97484.91;68020;1275;1016550;-60
2024/01/17 11:09:26;;;;;;;37.30;16.00;;;;;;;11.36;37.30;97480.62;68002;1275;1016416;-61
2024/01/17 11:12:28;;;;;;;38.20;16.30;;;;;;;11.70;37.44;97470.95;68007;1274;1016399;-60
2024/01/17 11:15:31;;;;;;;38.70;16.10;;;;;;;11.77;36.69;97458.20;67969;1275;1016327;-61
2024/01/17 11:18:34;;;;;;;39.20;16.00;;;;;;;11.64;36.41;97451.02;67932;1275;1016815;-60
2024/01/17 11:21:37;;;;;;;;;;;;;;;11.59;36.65;97444.53;67984;1275;1016374;-61
2024/01/17 11:24:40;;;;;;;39.60;16.50;;;;;;;11.54;36.36;97439.95;67960;1275;1016466;-60
2024/01/17 11:27:43;;;;;;;40.60;17.10;;;;;;;11.41;36.54;97432.94;68006;1275;1016469;-61
2024/01/17 11:30:45;;;;;;;;;;;;;;;11.54;36.91;97435.55;67994;1275;1016286;-61
2024/01/17 11:33:48;;;;;;;46.20;17.50;;;;;;;11.66;36.38;97429.56;67977;1275;1016477;-60
2024/01/17 11:36:52;;;;;;;40.20;16.60;;;;;;;11.69;36.78;97419.90;67980;1275;1016439;-60
2024/01/17 11:39:55;;;;;;;40.50;16.80;;;;;;;11.54;36.13;97415.40;68022;1275;1016475;-61
2024/01/17 11:42:58;;;;;;;41.60;16.90;;;;;;;11.57;36.73;97407.08;67947;1275;1016364;-61
2024/01/17 11:46:00;;;;;;;;;;;;;;;11.72;36.22;97398.30;67996;1275;1016682;-61
2024/01/17 11:49:03;;;;;;;38.10;15.60;;;;;;;11.86;36.33;97387.75;68000;1275;1016189;-61
2024/01/17 11:52:06;;;;;;;;;;;;;;;12.01;36.15;97377.02;67976;1275;1016645;-61
2024/01/17 11:55:09;;;;;;;36.00;14.50;;;;;;;12.06;35.70;97375.00;67973;1275;1016355;-61
2024/01/17 11:58:11;;;;;;;;;;;;;;;12.00;35.22;97371.95;67993;1275;1016416;-61
2024/01/17 12:01:14;;;;;;;35.60;14.80;;;;;;;11.77;35.38;97369.61;67904;1275;1016512;-61
2024/01/17 12:04:17;;;;;;;33.00;13.60;;;;;;;11.61;35.61;97368.27;68004;1275;1015894;-61
2024/01/17 12:07:20;;;;;;;38.90;15.00;;;;;;;11.58;35.37;97364.80;67960;1275;1016235;-61
2024/01/17 12:10:22;;;;;;;35.50;13.80;;;;;;;11.44;35.70;97363.45;68018;1275;1016496;-61
2024/01/17 12:13:25;;;;;;;;;;;;;;;11.34;35.64;97359.58;68021;1275;1016713;-59
2024/01/17 12:16:29;;;;;;;34.40;14.60;;;;;;;11.29;35.78;97348.57;68006;1275;1018637;-60
2024/01/17 12:19:31;;;;;;;;;;;;;;;11.20;35.96;97340.86;68003;1275;1016524;-60
2024/01/17 12:22:34;;;;;;;35.10;14.00;;;;;;;10.91;35.49;97333.52;67974;1275;1017965;-60
2024/01/17 12:25:37;;;;;;;;;;;;;;;10.53;35.70;97327.51;67996;1275;1018435;-60
2024/01/17 12:28:39;;;;;;;34.10;13.70;;;;;;;10.50;35.80;97321.09;67975;1275;1016430;-61
2024/01/17 12:31:42;;;;;;;;;;;;;;;10.41;35.77;97314.00;67943;1275;1016626;-61
2024/01/17 12:34:45;;;;;;;34.40;13.70;;;;;;;10.38;35.92;97309.14;67958;1275;1016491;-61
2024/01/17 12:37:47;;;;;;;34.80;13.90;;;;;;;10.31;35.65;97302.23;67993;1275;1016126;-61
2024/01/17 12:40:50;;;;;;;;;;;;;;;10.26;35.74;97290.53;67976;1274;1018242;-60
2024/01/17 12:43:53;;;;;;;39.70;15.50;;;;;;;10.23;35.47;97285.23;68015;1275;1016399;-61
2024/01/17 12:46:55;;;;;;;;;;;;;;;10.02;35.78;97280.17;67997;1275;1016481;-61
2024/01/17 12:49:58;;;;;;;36.10;15.00;;;;;;;10.03;36.04;97277.14;67963;1275;1016272;-60
2024/01/17 12:53:01;;;;;;;;;;;;;;;9.93;36.02;97270.63;67998;1275;1016251;-61
2024/01/17 12:56:05;;;;;;;36.30;14.80;;;;;;;9.80;36.22;97265.55;68021;1275;1016147;-61
2024/01/17 12:59:07;;;;;;;38.30;15.50;;;;;;;9.69;35.97;97255.13;68008;1274;1016771;-61
2024/01/17 13:02:14;;;;;;;41.00;15.50;;;;;;;9.65;36.31;97246.38;67981;1275;1015747;-61
2024/01/17 13:05:17;;;;;;;36.20;14.70;;;;;;;9.58;36.37;97239.77;67926;1275;1016548;-61
2024/01/17 13:08:19;;;;;;;39.80;15.20;;;;;;;9.55;36.26;97235.13;67992;1275;1018321;-61
2024/01/17 13:11:23;;;;;;;;;;;;;;;9.57;36.25;97235.85;67998;1275;1016332;-61
2024/01/17 13:14:25;;;;;;;37.60;14.60;;;;;;;9.59;36.51;97233.11;68000;1275;1016485;-60
2024/01/17 13:17:28;;;;;;;35.50;13.90;;;;;;;9.62;36.26;97221.16;67972;1275;1016489;-60
2024/01/17 13:20:31;;;;;;;;;;;;;;;9.63;36.42;97211.30;68003;1275;1016425;-61
2024/01/17 13:23:34;;;;;;;35.20;13.80;;;;;;;9.64;36.49;97209.46;67999;1275;1016342;-60
2024/01/17 13:26:36;;;;;;;;;;;;;;;9.79;36.34;97197.73;67933;1275;1016760;-60
2024/01/17 13:29:39;;;;;;;37.30;13.60;;;;;;;9.70;36.42;97187.35;67911;1275;1015840;-60
2024/01/17 13:32:42;;;;;;;;;;;;;;;9.72;36.27;97188.35;68024;1275;1016218;-60
2024/01/17 13:35:46;;;;;;;34.10;12.70;;;;;;;9.71;36.38;97179.73;67920;1275;1016467;-58
2024/01/17 13:38:49;;;;;;;34.40;13.00;;;;;;;9.67;36.41;97182.01;67939;1275;1016352;-59
2024/01/17 13:41:51;;;;;;;;;;;;;;;9.55;36.74;97176.14;67967;1275;1015874;-61
2024/01/17 13:44:54;;;;;;;35.30;14.10;;;;;;;9.43;37.03;97159.52;67987;1275;1016394;-61
2024/01/17 13:47:57;;;;;;;;;;;;;;;9.37;36.97;97152.71;68019;1275;1016747;-60
2024/01/17 13:51:00;;;;;;;37.40;14.50;;;;;;;9.39;36.84;97147.80;67937;1275;1015978;-60
2024/01/17 13:54:14;;;;;;;41.90;16.00;;;;;;;9.32;37.03;97147.70;68003;1275;1016520;-60
2024/01/17 13:57:17;;;;;;;48.00;17.30;;;;;;;9.28;37.33;97145.38;67903;1275;1016745;-59
2024/01/17 14:00:22;;;;;;;42.80;16.80;;;;;;;9.24;37.21;97139.84;67939;1275;1018662;-60